﻿<?xml version="1.0" encoding="UTF-8" standalone="no" ?>
<gpx xmlns="http://www.topografix.com/GPX/1/1" creator="CompeGPS" version="1.1" xmlns:xsi="http://www.w3.org/2001/XMLSchema-instance" xsi:schemaLocation="http://www.topografix.com/GPX/1/1 http://www.topografix.com/GPX/1/1/gpx.xsd http://www.garmin.com/xmlschemas/GpxExtensions/v3 http://www.garmin.com/xmlschemas/GpxExtensionsv3.xsd http://www.garmin.com/xmlschemas/TrackPointExtension/v1 http://www.garmin.com/xmlschemas/TrackPointExtensionv1.xsd" xmlns:gpxtpx="http://www.garmin.com/xmlschemas/TrackPointExtension/v1">
  <wpt lat="38.024386" lon="-6.496309">
    <ele>440.3</ele>
    <time>2019-05-16T23:28:28Z</time>
    <name>SEN 02</name>
    <desc></desc>
    <sym></sym>
  </wpt>
  <wpt lat="38.023055" lon="-6.495988">
    <ele>432.8</ele>
    <time>2019-05-16T23:28:57Z</time>
    <name>SEN 03</name>
    <desc></desc>
    <sym></sym>
  </wpt>
  <wpt lat="38.021905" lon="-6.493733">
    <ele>438.2</ele>
    <time>2019-05-16T23:29:07Z</time>
    <name>SEN 04</name>
    <desc></desc>
    <sym></sym>
  </wpt>
  <wpt lat="38.021560" lon="-6.493316">
    <ele>437.3</ele>
    <time>2019-05-16T23:29:20Z</time>
    <name>SEN 05</name>
    <desc></desc>
    <sym></sym>
  </wpt>
  <wpt lat="38.021042" lon="-6.492239">
    <ele>432.6</ele>
    <time>2019-05-16T23:29:35Z</time>
    <name>SEN 06</name>
    <desc></desc>
    <sym></sym>
  </wpt>
  <wpt lat="38.020371" lon="-6.491553">
    <ele>430.2</ele>
    <time>2019-05-16T23:29:44Z</time>
    <name>SEN 07</name>
    <desc></desc>
    <sym></sym>
  </wpt>
  <wpt lat="38.025538" lon="-6.496990">
    <ele>434.0</ele>
    <time>2018-07-21T08:18:37Z</time>
    <name>SEN 01</name>
    <desc>Panel Inicio</desc>
    <sym></sym>
  </wpt>
  <wpt lat="38.021453" lon="-6.493365">
    <ele>435.9</ele>
    <time>2018-07-21T10:25:39Z</time>
    <name>Cancela</name>
    <desc></desc>
    <sym></sym>
  </wpt>
  <wpt lat="38.020341" lon="-6.491633">
    <ele>435.0</ele>
    <time>2018-07-21T10:32:12Z</time>
    <name>Cueva</name>
    <desc></desc>
    <sym></sym>
  </wpt>
  <wpt lat="38.021735" lon="-6.493516">
    <ele>430.9</ele>
    <time>2018-07-21T10:39:57Z</time>
    <name>Badén</name>
    <desc></desc>
    <sym></sym>
  </wpt>
  <trk>
    <name>Cueva del Agua</name>
    <desc>Cueva del Agua</desc>
    <trkseg>
      <trkpt lat="38.025537" lon="-6.496986">
        <ele>431.8</ele>
        <time>2018-07-21T10:07:35Z</time>
      </trkpt>
      <trkpt lat="38.025430" lon="-6.496920">
        <ele>431.9</ele>
        <time>2018-07-21T10:07:58Z</time>
      </trkpt>
      <trkpt lat="38.025343" lon="-6.496862">
        <ele>432.0</ele>
        <time>2018-07-21T10:08:18Z</time>
      </trkpt>
      <trkpt lat="38.025210" lon="-6.496762">
        <ele>432.2</ele>
        <time>2018-07-21T10:08:49Z</time>
      </trkpt>
      <trkpt lat="38.025018" lon="-6.496647">
        <ele>432.4</ele>
        <time>2018-07-21T10:09:31Z</time>
      </trkpt>
      <trkpt lat="38.024782" lon="-6.496504">
        <ele>431.5</ele>
        <time>2018-07-21T10:10:23Z</time>
      </trkpt>
      <trkpt lat="38.024621" lon="-6.496405">
        <ele>430.2</ele>
        <time>2018-07-21T10:10:59Z</time>
      </trkpt>
      <trkpt lat="38.024589" lon="-6.496432">
        <ele>429.9</ele>
        <time>2018-07-21T10:11:07Z</time>
      </trkpt>
      <trkpt lat="38.024454" lon="-6.496341">
        <ele>429.6</ele>
        <time>2018-07-21T10:11:37Z</time>
      </trkpt>
      <trkpt lat="38.024362" lon="-6.496330">
        <ele>429.3</ele>
        <time>2018-07-21T10:11:56Z</time>
      </trkpt>
      <trkpt lat="38.024245" lon="-6.496306">
        <ele>429.0</ele>
        <time>2018-07-21T10:12:20Z</time>
      </trkpt>
      <trkpt lat="38.024138" lon="-6.496283">
        <ele>428.7</ele>
        <time>2018-07-21T10:12:41Z</time>
      </trkpt>
      <trkpt lat="38.024038" lon="-6.496257">
        <ele>428.7</ele>
        <time>2018-07-21T10:13:01Z</time>
      </trkpt>
      <trkpt lat="38.023926" lon="-6.496230">
        <ele>428.6</ele>
        <time>2018-07-21T10:13:24Z</time>
      </trkpt>
      <trkpt lat="38.023822" lon="-6.496208">
        <ele>428.5</ele>
        <time>2018-07-21T10:13:45Z</time>
      </trkpt>
      <trkpt lat="38.023636" lon="-6.496153">
        <ele>428.1</ele>
        <time>2018-07-21T10:14:23Z</time>
      </trkpt>
      <trkpt lat="38.023468" lon="-6.496115">
        <ele>428.5</ele>
        <time>2018-07-21T10:14:58Z</time>
      </trkpt>
      <trkpt lat="38.023325" lon="-6.496086">
        <ele>429.1</ele>
        <time>2018-07-21T10:15:27Z</time>
      </trkpt>
      <trkpt lat="38.023170" lon="-6.496052">
        <ele>430.1</ele>
        <time>2018-07-21T10:15:58Z</time>
      </trkpt>
      <trkpt lat="38.023136" lon="-6.496028">
        <ele>430.3</ele>
        <time>2018-07-21T10:16:06Z</time>
      </trkpt>
      <trkpt lat="38.023082" lon="-6.496013">
        <ele>430.5</ele>
        <time>2018-07-21T10:16:17Z</time>
      </trkpt>
      <trkpt lat="38.023017" lon="-6.495975">
        <ele>430.7</ele>
        <time>2018-07-21T10:16:31Z</time>
      </trkpt>
      <trkpt lat="38.022977" lon="-6.495933">
        <ele>430.6</ele>
        <time>2018-07-21T10:16:42Z</time>
      </trkpt>
      <trkpt lat="38.022902" lon="-6.495850">
        <ele>430.1</ele>
        <time>2018-07-21T10:17:02Z</time>
      </trkpt>
      <trkpt lat="38.022850" lon="-6.495777">
        <ele>430.1</ele>
        <time>2018-07-21T10:17:17Z</time>
      </trkpt>
      <trkpt lat="38.022757" lon="-6.495683">
        <ele>430.0</ele>
        <time>2018-07-21T10:17:41Z</time>
      </trkpt>
      <trkpt lat="38.022702" lon="-6.495636">
        <ele>429.9</ele>
        <time>2018-07-21T10:17:54Z</time>
      </trkpt>
      <trkpt lat="38.022646" lon="-6.495545">
        <ele>429.5</ele>
        <time>2018-07-21T10:18:12Z</time>
      </trkpt>
      <trkpt lat="38.022601" lon="-6.495465">
        <ele>429.2</ele>
        <time>2018-07-21T10:18:28Z</time>
      </trkpt>
      <trkpt lat="38.022521" lon="-6.495409">
        <ele>428.6</ele>
        <time>2018-07-21T10:18:46Z</time>
      </trkpt>
      <trkpt lat="38.022448" lon="-6.495316">
        <ele>428.5</ele>
        <time>2018-07-21T10:19:06Z</time>
      </trkpt>
      <trkpt lat="38.022365" lon="-6.495203">
        <ele>429.4</ele>
        <time>2018-07-21T10:19:31Z</time>
      </trkpt>
      <trkpt lat="38.022286" lon="-6.495097">
        <ele>430.0</ele>
        <time>2018-07-21T10:19:54Z</time>
      </trkpt>
      <trkpt lat="38.022222" lon="-6.494949">
        <ele>430.2</ele>
        <time>2018-07-21T10:20:20Z</time>
      </trkpt>
      <trkpt lat="38.022200" lon="-6.494836">
        <ele>430.9</ele>
        <time>2018-07-21T10:20:39Z</time>
      </trkpt>
      <trkpt lat="38.022173" lon="-6.494706">
        <ele>431.6</ele>
        <time>2018-07-21T10:21:00Z</time>
      </trkpt>
      <trkpt lat="38.022118" lon="-6.494563">
        <ele>432.1</ele>
        <time>2018-07-21T10:21:25Z</time>
      </trkpt>
      <trkpt lat="38.022081" lon="-6.494447">
        <ele>432.0</ele>
        <time>2018-07-21T10:21:45Z</time>
      </trkpt>
      <trkpt lat="38.022062" lon="-6.494340">
        <ele>431.8</ele>
        <time>2018-07-21T10:22:02Z</time>
      </trkpt>
      <trkpt lat="38.022049" lon="-6.494262">
        <ele>431.6</ele>
        <time>2018-07-21T10:22:15Z</time>
      </trkpt>
      <trkpt lat="38.022025" lon="-6.494168">
        <ele>431.3</ele>
        <time>2018-07-21T10:22:30Z</time>
      </trkpt>
      <trkpt lat="38.022012" lon="-6.494065">
        <ele>431.0</ele>
        <time>2018-07-21T10:22:46Z</time>
      </trkpt>
      <trkpt lat="38.021977" lon="-6.493985">
        <ele>430.5</ele>
        <time>2018-07-21T10:23:01Z</time>
      </trkpt>
      <trkpt lat="38.021957" lon="-6.493887">
        <ele>430.1</ele>
        <time>2018-07-21T10:23:17Z</time>
      </trkpt>
      <trkpt lat="38.021893" lon="-6.493766">
        <ele>430.6</ele>
        <time>2018-07-21T10:23:40Z</time>
      </trkpt>
      <trkpt lat="38.021835" lon="-6.493707">
        <ele>431.1</ele>
        <time>2018-07-21T10:23:55Z</time>
      </trkpt>
      <trkpt lat="38.021799" lon="-6.493678">
        <ele>431.3</ele>
        <time>2018-07-21T10:24:03Z</time>
      </trkpt>
      <trkpt lat="38.021725" lon="-6.493520">
        <ele>431.0</ele>
        <time>2018-07-21T10:24:32Z</time>
      </trkpt>
      <trkpt lat="38.021678" lon="-6.493434">
        <ele>430.7</ele>
        <time>2018-07-21T10:24:49Z</time>
      </trkpt>
      <trkpt lat="38.021602" lon="-6.493355">
        <ele>431.8</ele>
        <time>2018-07-21T10:25:08Z</time>
      </trkpt>
      <trkpt lat="38.021531" lon="-6.493357">
        <ele>433.7</ele>
        <time>2018-07-21T10:25:23Z</time>
      </trkpt>
      <trkpt lat="38.021453" lon="-6.493365">
        <ele>435.9</ele>
        <time>2018-07-21T10:25:39Z</time>
      </trkpt>
      <trkpt lat="38.021416" lon="-6.493292">
        <ele>435.9</ele>
        <time>2018-07-21T10:25:53Z</time>
      </trkpt>
      <trkpt lat="38.021367" lon="-6.493090">
        <ele>435.2</ele>
        <time>2018-07-21T10:26:26Z</time>
      </trkpt>
      <trkpt lat="38.021315" lon="-6.492925">
        <ele>435.5</ele>
        <time>2018-07-21T10:26:54Z</time>
      </trkpt>
      <trkpt lat="38.021270" lon="-6.492802">
        <ele>435.7</ele>
        <time>2018-07-21T10:27:15Z</time>
      </trkpt>
      <trkpt lat="38.021232" lon="-6.492684">
        <ele>435.5</ele>
        <time>2018-07-21T10:27:36Z</time>
      </trkpt>
      <trkpt lat="38.021196" lon="-6.492562">
        <ele>435.2</ele>
        <time>2018-07-21T10:27:56Z</time>
      </trkpt>
      <trkpt lat="38.021164" lon="-6.492430">
        <ele>434.7</ele>
        <time>2018-07-21T10:28:18Z</time>
      </trkpt>
      <trkpt lat="38.021132" lon="-6.492367">
        <ele>434.6</ele>
        <time>2018-07-21T10:28:29Z</time>
      </trkpt>
      <trkpt lat="38.021076" lon="-6.492332">
        <ele>435.5</ele>
        <time>2018-07-21T10:28:42Z</time>
      </trkpt>
      <trkpt lat="38.021026" lon="-6.492304">
        <ele>435.0</ele>
        <time>2018-07-21T10:28:53Z</time>
      </trkpt>
      <trkpt lat="38.020960" lon="-6.492301">
        <ele>436.0</ele>
        <time>2018-07-21T10:29:06Z</time>
      </trkpt>
      <trkpt lat="38.020938" lon="-6.492315">
        <ele>436.0</ele>
        <time>2018-07-21T10:29:11Z</time>
      </trkpt>
      <trkpt lat="38.020912" lon="-6.492293">
        <ele>436.0</ele>
        <time>2018-07-21T10:29:17Z</time>
      </trkpt>
      <trkpt lat="38.020900" lon="-6.492230">
        <ele>436.0</ele>
        <time>2018-07-21T10:29:28Z</time>
      </trkpt>
      <trkpt lat="38.020876" lon="-6.492157">
        <ele>435.5</ele>
        <time>2018-07-21T10:29:40Z</time>
      </trkpt>
      <trkpt lat="38.020840" lon="-6.492067">
        <ele>434.0</ele>
        <time>2018-07-21T10:29:56Z</time>
      </trkpt>
      <trkpt lat="38.020805" lon="-6.492007">
        <ele>432.6</ele>
        <time>2018-07-21T10:30:08Z</time>
      </trkpt>
      <trkpt lat="38.020743" lon="-6.491898">
        <ele>432.1</ele>
        <time>2018-07-21T10:30:29Z</time>
      </trkpt>
      <trkpt lat="38.020689" lon="-6.491835">
        <ele>432.8</ele>
        <time>2018-07-21T10:30:44Z</time>
      </trkpt>
      <trkpt lat="38.020648" lon="-6.491750">
        <ele>432.5</ele>
        <time>2018-07-21T10:31:00Z</time>
      </trkpt>
      <trkpt lat="38.020584" lon="-6.491685">
        <ele>432.8</ele>
        <time>2018-07-21T10:31:16Z</time>
      </trkpt>
      <trkpt lat="38.020543" lon="-6.491652">
        <ele>433.5</ele>
        <time>2018-07-21T10:31:26Z</time>
      </trkpt>
      <trkpt lat="38.020514" lon="-6.491624">
        <ele>434.0</ele>
        <time>2018-07-21T10:31:33Z</time>
      </trkpt>
      <trkpt lat="38.020481" lon="-6.491585">
        <ele>434.0</ele>
        <time>2018-07-21T10:31:42Z</time>
      </trkpt>
      <trkpt lat="38.020444" lon="-6.491583">
        <ele>435.0</ele>
        <time>2018-07-21T10:31:50Z</time>
      </trkpt>
      <trkpt lat="38.020401" lon="-6.491590">
        <ele>435.0</ele>
        <time>2018-07-21T10:31:58Z</time>
      </trkpt>
      <trkpt lat="38.020341" lon="-6.491633">
        <ele>435.0</ele>
        <time>2018-07-21T10:32:12Z</time>
      </trkpt>
      <trkpt lat="38.020337" lon="-6.491612">
        <ele>435.0</ele>
        <time>2018-07-21T10:32:16Z</time>
      </trkpt>
      <trkpt lat="38.020362" lon="-6.491609">
        <ele>435.0</ele>
        <time>2018-07-21T10:32:21Z</time>
      </trkpt>
      <trkpt lat="38.020391" lon="-6.491584">
        <ele>435.0</ele>
        <time>2018-07-21T10:32:28Z</time>
      </trkpt>
      <trkpt lat="38.020439" lon="-6.491570">
        <ele>435.0</ele>
        <time>2018-07-21T10:32:38Z</time>
      </trkpt>
      <trkpt lat="38.020480" lon="-6.491577">
        <ele>434.0</ele>
        <time>2018-07-21T10:32:46Z</time>
      </trkpt>
      <trkpt lat="38.020520" lon="-6.491622">
        <ele>434.3</ele>
        <time>2018-07-21T10:32:57Z</time>
      </trkpt>
      <trkpt lat="38.020548" lon="-6.491647">
        <ele>433.3</ele>
        <time>2018-07-21T10:33:04Z</time>
      </trkpt>
      <trkpt lat="38.020581" lon="-6.491678">
        <ele>432.7</ele>
        <time>2018-07-21T10:33:12Z</time>
      </trkpt>
      <trkpt lat="38.020641" lon="-6.491738">
        <ele>432.5</ele>
        <time>2018-07-21T10:33:27Z</time>
      </trkpt>
      <trkpt lat="38.020689" lon="-6.491826">
        <ele>432.6</ele>
        <time>2018-07-21T10:33:44Z</time>
      </trkpt>
      <trkpt lat="38.020741" lon="-6.491888">
        <ele>432.0</ele>
        <time>2018-07-21T10:33:59Z</time>
      </trkpt>
      <trkpt lat="38.020807" lon="-6.492000">
        <ele>432.4</ele>
        <time>2018-07-21T10:34:21Z</time>
      </trkpt>
      <trkpt lat="38.020839" lon="-6.492060">
        <ele>433.3</ele>
        <time>2018-07-21T10:34:32Z</time>
      </trkpt>
      <trkpt lat="38.020878" lon="-6.492151">
        <ele>435.3</ele>
        <time>2018-07-21T10:34:49Z</time>
      </trkpt>
      <trkpt lat="38.020902" lon="-6.492222">
        <ele>436.7</ele>
        <time>2018-07-21T10:35:01Z</time>
      </trkpt>
      <trkpt lat="38.020917" lon="-6.492287">
        <ele>436.0</ele>
        <time>2018-07-21T10:35:12Z</time>
      </trkpt>
      <trkpt lat="38.020937" lon="-6.492307">
        <ele>436.0</ele>
        <time>2018-07-21T10:35:17Z</time>
      </trkpt>
      <trkpt lat="38.020958" lon="-6.492295">
        <ele>436.0</ele>
        <time>2018-07-21T10:35:22Z</time>
      </trkpt>
      <trkpt lat="38.021027" lon="-6.492296">
        <ele>436.0</ele>
        <time>2018-07-21T10:35:35Z</time>
      </trkpt>
      <trkpt lat="38.021075" lon="-6.492324">
        <ele>435.3</ele>
        <time>2018-07-21T10:35:46Z</time>
      </trkpt>
      <trkpt lat="38.021134" lon="-6.492359">
        <ele>434.5</ele>
        <time>2018-07-21T10:35:59Z</time>
      </trkpt>
      <trkpt lat="38.021169" lon="-6.492427">
        <ele>434.5</ele>
        <time>2018-07-21T10:36:12Z</time>
      </trkpt>
      <trkpt lat="38.021205" lon="-6.492556">
        <ele>434.9</ele>
        <time>2018-07-21T10:36:34Z</time>
      </trkpt>
      <trkpt lat="38.021240" lon="-6.492679">
        <ele>435.2</ele>
        <time>2018-07-21T10:36:54Z</time>
      </trkpt>
      <trkpt lat="38.021280" lon="-6.492802">
        <ele>435.4</ele>
        <time>2018-07-21T10:37:15Z</time>
      </trkpt>
      <trkpt lat="38.021327" lon="-6.492925">
        <ele>435.1</ele>
        <time>2018-07-21T10:37:37Z</time>
      </trkpt>
      <trkpt lat="38.021379" lon="-6.493095">
        <ele>434.8</ele>
        <time>2018-07-21T10:38:05Z</time>
      </trkpt>
      <trkpt lat="38.021426" lon="-6.493293">
        <ele>435.6</ele>
        <time>2018-07-21T10:38:38Z</time>
      </trkpt>
      <trkpt lat="38.021458" lon="-6.493351">
        <ele>435.5</ele>
        <time>2018-07-21T10:38:49Z</time>
      </trkpt>
      <trkpt lat="38.021536" lon="-6.493345">
        <ele>433.4</ele>
        <time>2018-07-21T10:39:05Z</time>
      </trkpt>
      <trkpt lat="38.021606" lon="-6.493345">
        <ele>431.6</ele>
        <time>2018-07-21T10:39:19Z</time>
      </trkpt>
      <trkpt lat="38.021690" lon="-6.493434">
        <ele>430.6</ele>
        <time>2018-07-21T10:39:41Z</time>
      </trkpt>
      <trkpt lat="38.021735" lon="-6.493516">
        <ele>430.9</ele>
        <time>2018-07-21T10:39:57Z</time>
      </trkpt>
      <trkpt lat="38.021807" lon="-6.493664">
        <ele>431.2</ele>
        <time>2018-07-21T10:40:24Z</time>
      </trkpt>
      <trkpt lat="38.021839" lon="-6.493690">
        <ele>431.0</ele>
        <time>2018-07-21T10:40:32Z</time>
      </trkpt>
      <trkpt lat="38.021898" lon="-6.493749">
        <ele>430.5</ele>
        <time>2018-07-21T10:40:47Z</time>
      </trkpt>
      <trkpt lat="38.021926" lon="-6.493824">
        <ele>430.2</ele>
        <time>2018-07-21T10:41:00Z</time>
      </trkpt>
      <trkpt lat="38.021967" lon="-6.493937">
        <ele>430.3</ele>
        <time>2018-07-21T10:41:20Z</time>
      </trkpt>
      <trkpt lat="38.021992" lon="-6.494023">
        <ele>430.7</ele>
        <time>2018-07-21T10:41:34Z</time>
      </trkpt>
      <trkpt lat="38.022018" lon="-6.494121">
        <ele>431.1</ele>
        <time>2018-07-21T10:41:50Z</time>
      </trkpt>
      <trkpt lat="38.022032" lon="-6.494222">
        <ele>431.5</ele>
        <time>2018-07-21T10:42:07Z</time>
      </trkpt>
      <trkpt lat="38.022054" lon="-6.494295">
        <ele>431.7</ele>
        <time>2018-07-21T10:42:19Z</time>
      </trkpt>
      <trkpt lat="38.022071" lon="-6.494405">
        <ele>431.9</ele>
        <time>2018-07-21T10:42:37Z</time>
      </trkpt>
      <trkpt lat="38.022095" lon="-6.494500">
        <ele>432.1</ele>
        <time>2018-07-21T10:42:52Z</time>
      </trkpt>
      <trkpt lat="38.022146" lon="-6.494626">
        <ele>431.9</ele>
        <time>2018-07-21T10:43:14Z</time>
      </trkpt>
      <trkpt lat="38.022187" lon="-6.494773">
        <ele>431.3</ele>
        <time>2018-07-21T10:43:39Z</time>
      </trkpt>
      <trkpt lat="38.022211" lon="-6.494895">
        <ele>430.6</ele>
        <time>2018-07-21T10:43:59Z</time>
      </trkpt>
      <trkpt lat="38.022254" lon="-6.495027">
        <ele>430.1</ele>
        <time>2018-07-21T10:44:21Z</time>
      </trkpt>
      <trkpt lat="38.022334" lon="-6.495161">
        <ele>429.7</ele>
        <time>2018-07-21T10:44:48Z</time>
      </trkpt>
      <trkpt lat="38.022402" lon="-6.495265">
        <ele>428.8</ele>
        <time>2018-07-21T10:45:09Z</time>
      </trkpt>
      <trkpt lat="38.022484" lon="-6.495366">
        <ele>428.5</ele>
        <time>2018-07-21T10:45:32Z</time>
      </trkpt>
      <trkpt lat="38.022563" lon="-6.495434">
        <ele>428.9</ele>
        <time>2018-07-21T10:45:51Z</time>
      </trkpt>
      <trkpt lat="38.022623" lon="-6.495507">
        <ele>429.3</ele>
        <time>2018-07-21T10:46:08Z</time>
      </trkpt>
      <trkpt lat="38.022674" lon="-6.495590">
        <ele>429.7</ele>
        <time>2018-07-21T10:46:24Z</time>
      </trkpt>
      <trkpt lat="38.022727" lon="-6.495657">
        <ele>430.0</ele>
        <time>2018-07-21T10:46:39Z</time>
      </trkpt>
      <trkpt lat="38.022807" lon="-6.495731">
        <ele>430.0</ele>
        <time>2018-07-21T10:46:59Z</time>
      </trkpt>
      <trkpt lat="38.022879" lon="-6.495810">
        <ele>430.0</ele>
        <time>2018-07-21T10:47:18Z</time>
      </trkpt>
      <trkpt lat="38.022939" lon="-6.495893">
        <ele>430.4</ele>
        <time>2018-07-21T10:47:36Z</time>
      </trkpt>
      <trkpt lat="38.022995" lon="-6.495954">
        <ele>430.6</ele>
        <time>2018-07-21T10:47:51Z</time>
      </trkpt>
      <trkpt lat="38.023048" lon="-6.496000">
        <ele>430.6</ele>
        <time>2018-07-21T10:48:03Z</time>
      </trkpt>
      <trkpt lat="38.023108" lon="-6.496022">
        <ele>430.4</ele>
        <time>2018-07-21T10:48:16Z</time>
      </trkpt>
      <trkpt lat="38.023151" lon="-6.496037">
        <ele>430.2</ele>
        <time>2018-07-21T10:48:25Z</time>
      </trkpt>
      <trkpt lat="38.023253" lon="-6.496071">
        <ele>429.6</ele>
        <time>2018-07-21T10:48:46Z</time>
      </trkpt>
      <trkpt lat="38.023409" lon="-6.496101">
        <ele>428.8</ele>
        <time>2018-07-21T10:49:17Z</time>
      </trkpt>
      <trkpt lat="38.023569" lon="-6.496138">
        <ele>428.2</ele>
        <time>2018-07-21T10:49:50Z</time>
      </trkpt>
      <trkpt lat="38.023729" lon="-6.496181">
        <ele>428.3</ele>
        <time>2018-07-21T10:50:23Z</time>
      </trkpt>
      <trkpt lat="38.023874" lon="-6.496216">
        <ele>428.6</ele>
        <time>2018-07-21T10:50:52Z</time>
      </trkpt>
      <trkpt lat="38.023984" lon="-6.496241">
        <ele>428.7</ele>
        <time>2018-07-21T10:51:14Z</time>
      </trkpt>
      <trkpt lat="38.024089" lon="-6.496273">
        <ele>428.7</ele>
        <time>2018-07-21T10:51:36Z</time>
      </trkpt>
      <trkpt lat="38.024190" lon="-6.496295">
        <ele>428.8</ele>
        <time>2018-07-21T10:51:56Z</time>
      </trkpt>
      <trkpt lat="38.024308" lon="-6.496315">
        <ele>429.2</ele>
        <time>2018-07-21T10:52:20Z</time>
      </trkpt>
      <trkpt lat="38.024411" lon="-6.496335">
        <ele>429.4</ele>
        <time>2018-07-21T10:52:41Z</time>
      </trkpt>
      <trkpt lat="38.024479" lon="-6.496363">
        <ele>429.5</ele>
        <time>2018-07-21T10:52:55Z</time>
      </trkpt>
      <trkpt lat="38.024642" lon="-6.496479">
        <ele>430.1</ele>
        <time>2018-07-21T10:53:33Z</time>
      </trkpt>
      <trkpt lat="38.024800" lon="-6.496560">
        <ele>431.4</ele>
        <time>2018-07-21T10:54:07Z</time>
      </trkpt>
      <trkpt lat="38.024944" lon="-6.496666">
        <ele>431.6</ele>
        <time>2018-07-21T10:54:40Z</time>
      </trkpt>
      <trkpt lat="38.025127" lon="-6.496766">
        <ele>431.9</ele>
        <time>2018-07-21T10:55:20Z</time>
      </trkpt>
      <trkpt lat="38.025260" lon="-6.496850">
        <ele>431.7</ele>
        <time>2018-07-21T10:55:49Z</time>
      </trkpt>
      <trkpt lat="38.025378" lon="-6.496938">
        <ele>431.4</ele>
        <time>2018-07-21T10:56:17Z</time>
      </trkpt>
      <trkpt lat="38.025453" lon="-6.496999">
        <ele>431.5</ele>
        <time>2018-07-21T10:56:35Z</time>
      </trkpt>
      <trkpt lat="38.025473" lon="-6.496940">
        <ele>431.8</ele>
        <time>2018-07-21T10:56:45Z</time>
      </trkpt>
      <trkpt lat="38.025537" lon="-6.496982">
        <ele>431.8</ele>
        <time>2018-07-21T10:56:59Z</time>
      </trkpt>
    </trkseg>
  </trk>
</gpx>
